createdAt,value
2019-05-02T00:02:24.132Z,9.40
2019-05-02T00:04:51.025Z,9.40
2019-05-02T00:07:21.769Z,9.40
2019-05-02T00:09:51.192Z,9.40
2019-05-02T00:12:20.808Z,9.40
2019-05-02T00:14:49.791Z,9.30
2019-05-02T00:17:20.382Z,9.30
2019-05-02T00:19:51.283Z,9.40
2019-05-02T00:22:20.492Z,9.40
2019-05-02T00:24:49.475Z,9.50
2019-05-02T00:27:18.511Z,9.50
2019-05-02T00:29:47.384Z,9.40
2019-05-02T00:32:18.351Z,9.40
2019-05-02T00:34:46.847Z,9.40
2019-05-02T00:37:18.997Z,9.30
2019-05-02T00:39:49.236Z,9.40
2019-05-02T00:42:17.644Z,9.20
2019-05-02T00:44:48.305Z,9.30
2019-05-02T00:47:18.899Z,9.10
2019-05-02T00:49:48.428Z,9.00
2019-05-02T00:52:17.306Z,9.00
2019-05-02T00:54:46.231Z,9.10
2019-05-02T00:57:19.787Z,9.10
2019-05-02T00:59:45.707Z,9.00
2019-05-02T01:02:16.160Z,8.90
2019-05-02T01:04:46.896Z,8.90
2019-05-02T01:07:15.783Z,8.80
2019-05-02T01:09:46.762Z,8.70
2019-05-02T01:12:25.769Z,8.70
2019-05-02T01:14:45.907Z,8.60
2019-05-02T01:17:14.881Z,8.60
2019-05-02T01:19:47.148Z,8.70
2019-05-02T01:22:16.011Z,8.50
2019-05-02T01:24:44.911Z,8.60
2019-05-02T01:27:15.462Z,8.60
2019-05-02T01:29:45.978Z,8.60
2019-05-02T01:32:16.440Z,8.50
2019-05-02T01:34:54.573Z,8.60
2019-05-02T01:37:22.104Z,8.60
2019-05-02T01:39:51.023Z,8.40
2019-05-02T01:42:19.913Z,8.70
2019-05-02T01:44:48.841Z,8.60
2019-05-02T01:47:17.725Z,8.20
2019-05-02T01:49:46.669Z,7.60
2019-05-02T01:52:18.940Z,8.20
2019-05-02T01:54:47.587Z,8.30
2019-05-02T01:57:16.678Z,8.00
2019-05-02T01:59:45.629Z,9.50
2019-05-02T02:02:14.897Z,8.30
2019-05-02T02:04:43.782Z,8.60
2019-05-02T02:12:13.044Z,8.30
2019-05-02T02:14:41.920Z,8.40
2019-05-02T02:17:15.503Z,8.40
2019-05-02T02:19:42.951Z,9.10
2019-05-02T02:22:19.333Z,8.40
2019-05-02T02:24:49.796Z,8.30
2019-05-02T03:47:28.126Z,8.70
2019-05-02T03:52:25.836Z,7.90
2019-05-02T03:57:32.322Z,7.80
2019-05-02T03:59:54.046Z,8.30
2019-05-02T04:02:24.327Z,8.00
2019-05-02T04:05:00.322Z,6.20
2019-05-02T04:09:52.770Z,8.00
2019-05-02T04:12:22.040Z,8.10
2019-05-02T04:14:57.478Z,8.10
2019-05-02T04:17:29.145Z,7.50
2019-05-02T04:19:57.423Z,7.60
2019-05-02T04:22:27.106Z,8.00
2019-05-02T04:24:57.196Z,8.00
2019-05-02T04:27:27.808Z,8.00
2019-05-02T04:29:57.290Z,8.10
2019-05-02T04:32:26.171Z,8.00
2019-05-02T04:34:57.908Z,8.30
2019-05-02T04:37:25.626Z,8.60
2019-05-02T04:39:59.111Z,7.60
2019-05-02T04:42:25.092Z,8.60
2019-05-02T04:45:13.955Z,8.70
2019-05-02T04:47:24.537Z,8.80
2019-05-02T04:49:53.448Z,8.90
2019-05-02T04:52:22.333Z,8.90
2019-05-02T04:54:51.249Z,9.40
2019-05-02T04:57:20.140Z,10.20
2019-05-02T04:59:50.481Z,9.20
2019-05-02T05:02:20.955Z,9.30
2019-05-02T05:04:50.196Z,9.40
2019-05-02T05:07:19.088Z,9.50
2019-05-02T05:09:57.010Z,9.50
2019-05-02T05:12:23.841Z,9.10
2019-05-02T05:14:57.845Z,9.40
2019-05-02T05:17:32.456Z,10.00
2019-05-02T05:20:00.172Z,9.90
2019-05-02T05:22:30.219Z,9.90
2019-05-02T05:25:12.225Z,10.00
2019-05-02T05:27:39.378Z,9.90
2019-05-02T05:30:15.443Z,10.30
2019-05-02T05:35:13.055Z,10.50
2019-05-02T05:37:43.348Z,10.30
2019-05-02T05:40:12.851Z,10.50
2019-05-02T05:42:41.768Z,11.00
2019-05-02T05:45:13.836Z,10.60
2019-05-02T05:47:41.307Z,10.80
2019-05-02T05:50:10.291Z,10.80
2019-05-02T05:52:42.455Z,11.30
2019-05-02T05:55:12.682Z,11.10
2019-05-02T05:57:40.347Z,11.20
2019-05-02T06:00:15.568Z,11.40
2019-05-02T06:02:52.858Z,11.20
2019-05-02T06:05:10.698Z,11.60
2019-05-02T06:07:41.810Z,11.70
2019-05-02T06:10:10.476Z,11.60
2019-05-02T06:12:39.413Z,11.80
2019-05-02T06:15:08.496Z,11.90
2019-05-02T06:17:37.419Z,12.10
2019-05-02T06:20:09.010Z,12.20
2019-05-02T06:22:38.054Z,12.30
2019-05-02T06:25:09.771Z,14.60
2019-05-02T06:27:39.171Z,12.50
2019-05-02T06:30:09.147Z,12.30
2019-05-02T06:32:38.075Z,12.30
2019-05-02T06:35:07.843Z,12.50
2019-05-02T06:37:36.772Z,12.60
2019-05-02T06:40:09.447Z,13.50
2019-05-02T06:42:38.617Z,12.80
2019-05-02T06:52:35.979Z,13.90
2019-05-02T07:47:40.427Z,15.40
2019-05-02T07:50:10.453Z,15.50
2019-05-02T07:52:40.631Z,15.40
2019-05-02T07:55:10.058Z,15.50
2019-05-02T07:57:38.903Z,15.40
2019-05-02T08:00:10.242Z,14.50
2019-05-02T08:02:39.171Z,15.80
2019-05-02T08:05:08.913Z,15.80
2019-05-02T08:07:38.106Z,15.40
2019-05-02T08:10:07.922Z,15.90
2019-05-02T08:12:36.925Z,15.90
2019-05-02T08:15:13.047Z,16.40
2019-05-02T08:17:38.397Z,16.10
2019-05-02T08:20:08.785Z,18.60
2019-05-02T08:22:37.799Z,16.40
2019-05-02T08:25:10.334Z,16.50
2019-05-02T08:27:43.179Z,16.50
2019-05-02T08:30:14.229Z,16.50
2019-05-02T08:32:43.155Z,16.50
2019-05-02T08:35:12.037Z,16.60
2019-05-02T08:37:42.794Z,16.70
2019-05-02T08:40:12.131Z,16.70
2019-05-02T08:42:41.127Z,16.90
2019-05-02T08:45:10.427Z,16.90
2019-05-02T08:47:39.357Z,17.10
2019-05-02T08:50:08.451Z,17.30
2019-05-02T08:52:42.395Z,17.20
2019-05-02T08:55:09.669Z,17.20
2019-05-02T08:57:39.788Z,17.30
2019-05-02T09:00:10.928Z,17.50
2019-05-02T09:02:41.513Z,17.50
2019-05-02T09:05:10.803Z,17.60
2019-05-02T09:07:42.775Z,17.60
2019-05-02T09:10:11.363Z,17.50
2019-05-02T09:12:42.069Z,17.40
2019-05-02T09:15:11.831Z,17.30
2019-05-02T09:17:44.731Z,17.40
2019-05-02T09:20:18.782Z,17.60
2019-05-02T09:22:46.548Z,17.70
2019-05-02T09:25:13.506Z,17.90
2019-05-02T09:27:42.713Z,18.00
2019-05-02T09:30:17.014Z,18.00
2019-05-02T09:32:43.102Z,18.00
2019-05-02T09:35:12.082Z,18.00
2019-05-02T09:37:41.931Z,18.10
2019-05-02T09:40:16.364Z,18.00
2019-05-02T09:42:43.042Z,18.00
2019-05-02T09:45:16.057Z,18.10
2019-05-02T09:47:56.654Z,18.20
2019-05-02T09:50:20.499Z,18.20
2019-05-02T09:52:47.818Z,18.40
2019-05-02T09:55:17.954Z,18.40
2019-05-02T09:57:46.877Z,18.30
2019-05-02T10:00:36.342Z,18.50
2019-05-02T10:03:05.905Z,18.50
2019-05-02T10:05:34.955Z,18.50
2019-05-02T10:08:06.874Z,18.50
2019-05-02T10:10:37.251Z,18.50
2019-05-02T10:13:06.947Z,18.60
2019-05-02T10:15:35.843Z,18.70
2019-05-02T10:18:10.657Z,18.60
2019-05-02T10:20:36.510Z,18.60
2019-05-02T10:23:06.117Z,18.80
2019-05-02T10:25:38.458Z,18.60
2019-05-02T10:28:06.075Z,18.50
2019-05-02T10:30:36.139Z,18.40
2019-05-02T10:33:05.891Z,18.20
2019-05-02T10:35:40.374Z,18.30
2019-05-02T10:38:09.549Z,18.50
2019-05-02T10:40:37.662Z,18.70
2019-05-02T10:43:06.607Z,19.00
2019-05-02T10:45:36.267Z,19.20
2019-05-02T10:48:05.305Z,19.30
2019-05-02T10:50:47.871Z,19.40
2019-05-02T10:53:16.825Z,19.50
2019-05-02T10:55:46.108Z,19.30
2019-05-02T10:58:15.034Z,19.10
2019-05-02T11:00:45.489Z,19.20
2019-05-02T11:03:32.022Z,19.30
2019-05-02T11:06:03.671Z,19.30
2019-05-02T11:08:36.670Z,19.30
2019-05-02T11:11:06.096Z,19.30
2019-05-02T11:13:42.484Z,19.50
2019-05-02T11:16:18.963Z,19.60
2019-05-02T11:19:05.991Z,19.80
2019-05-02T11:21:34.872Z,20.00
2019-05-02T11:24:03.796Z,20.10
2019-05-02T11:26:32.725Z,20.20
2019-05-02T11:29:02.955Z,20.60
2019-05-02T11:31:32.595Z,20.70
2019-05-02T11:34:04.713Z,20.50
2019-05-02T11:36:33.646Z,20.50
2019-05-02T11:39:14.680Z,20.20
2019-05-02T11:41:33.095Z,20.20
2019-05-02T11:44:03.015Z,20.30
2019-05-02T11:46:33.041Z,20.60
2019-05-02T11:49:02.549Z,20.50
2019-05-02T11:51:32.589Z,20.60
2019-05-02T11:54:05.216Z,20.60
2019-05-02T11:56:33.108Z,20.60
2019-05-02T11:59:02.772Z,20.30
2019-05-02T12:01:39.053Z,20.40
2019-05-02T12:04:07.637Z,20.70
2019-05-02T12:06:35.378Z,20.70
2019-05-02T12:09:08.396Z,20.50
2019-05-02T12:11:37.310Z,20.20
2019-05-02T12:14:06.294Z,20.40
2019-05-02T12:16:35.282Z,20.60
2019-05-02T12:19:11.785Z,20.60
2019-05-02T12:21:35.108Z,20.60
2019-05-02T12:24:04.081Z,20.30
2019-05-02T12:26:36.332Z,20.20
2019-05-02T12:29:05.281Z,20.30
2019-05-02T12:31:34.305Z,20.60
2019-05-02T12:34:04.890Z,20.90
2019-05-02T12:36:33.923Z,21.10
2019-05-02T12:39:03.175Z,21.10
2019-05-02T12:41:33.103Z,21.20
2019-05-02T12:44:02.493Z,21.00
2019-05-02T12:46:31.868Z,21.00
2019-05-02T12:49:02.852Z,21.00
2019-05-02T12:51:32.166Z,20.90
2019-05-02T12:54:02.271Z,20.90
2019-05-02T12:56:32.629Z,21.00
2019-05-02T12:59:02.416Z,21.10
2019-05-02T13:01:33.849Z,20.90
2019-05-02T13:04:07.211Z,21.00
2019-05-02T13:06:37.267Z,20.90
2019-05-02T13:09:12.698Z,21.10
2019-05-02T13:11:45.753Z,21.20
2019-05-02T13:14:19.133Z,21.30
2019-05-02T13:16:44.134Z,21.20
2019-05-02T13:19:13.073Z,21.10
2019-05-02T13:22:01.660Z,21.20
2019-05-02T13:24:47.064Z,21.40
2019-05-02T13:27:16.019Z,21.50
2019-05-02T13:29:45.133Z,21.60
2019-05-02T13:32:18.675Z,21.70
2019-05-02T13:34:48.673Z,21.60
2019-05-02T13:37:22.475Z,21.60
2019-05-02T13:40:11.970Z,21.40
2019-05-02T13:42:41.762Z,21.30
2019-05-02T13:45:15.852Z,21.40
2019-05-02T13:47:44.745Z,21.50
2019-05-02T13:50:14.078Z,21.50
2019-05-02T13:52:45.278Z,21.80
2019-05-02T13:55:15.301Z,21.70
2019-05-02T13:57:46.954Z,21.50
2019-05-02T14:00:17.428Z,21.20
2019-05-02T14:02:46.758Z,21.20
2019-05-02T14:05:16.540Z,21.20
2019-05-02T14:07:48.146Z,21.20
2019-05-02T14:10:25.567Z,21.20
2019-05-02T14:12:58.782Z,21.20
2019-05-02T14:15:29.328Z,21.50
2019-05-02T14:17:59.141Z,21.80
2019-05-02T14:20:30.345Z,21.80
2019-05-02T14:23:01.998Z,21.60
2019-05-02T14:25:32.253Z,21.50
2019-05-02T14:28:02.978Z,21.50
2019-05-02T14:30:39.360Z,21.40
2019-05-02T14:33:08.876Z,21.20
2019-05-02T14:35:39.291Z,21.30
2019-05-02T14:38:12.818Z,21.50
2019-05-02T14:40:56.793Z,21.70
2019-05-02T14:43:46.681Z,21.60
2019-05-02T14:46:17.570Z,21.80
2019-05-02T14:48:46.811Z,21.90
2019-05-02T14:51:24.968Z,21.70
2019-05-02T14:53:48.691Z,21.60
2019-05-02T14:56:19.693Z,21.50
2019-05-02T14:58:52.616Z,21.70
2019-05-02T15:01:26.073Z,21.80
2019-05-02T15:03:58.364Z,21.80
2019-05-02T15:06:25.256Z,21.60
2019-05-02T15:09:24.826Z,21.20
2019-05-02T15:12:02.897Z,21.10
2019-05-02T15:14:34.067Z,21.10
2019-05-02T15:17:05.057Z,21.10
2019-05-02T15:19:36.093Z,20.90
2019-05-02T15:22:07.341Z,20.90
2019-05-02T15:24:38.724Z,20.80
2019-05-02T15:27:13.608Z,20.70
2019-05-02T15:29:42.159Z,20.60
2019-05-02T15:32:14.556Z,20.60
2019-05-02T15:35:02.481Z,20.60
2019-05-02T15:37:35.720Z,20.80
2019-05-02T15:42:36.276Z,21.20
2019-05-02T15:45:08.004Z,21.10
2019-05-02T15:47:41.555Z,21.30
2019-05-02T15:50:09.487Z,21.60
2019-05-02T15:52:42.042Z,21.70
2019-05-02T15:55:13.865Z,21.20
2019-05-02T15:57:49.386Z,21.00
2019-05-02T16:00:25.810Z,20.70
2019-05-02T16:02:56.306Z,20.70
2019-05-02T16:05:27.355Z,20.80
2019-05-02T16:08:05.236Z,20.90
2019-05-02T16:10:33.467Z,21.10
2019-05-02T16:13:03.742Z,21.10
2019-05-02T16:15:34.488Z,20.90
2019-05-02T16:18:06.792Z,20.80
2019-05-02T16:20:47.354Z,20.60
2019-05-02T16:23:13.324Z,20.50
2019-05-02T16:25:43.057Z,20.50
2019-05-02T16:28:12.799Z,20.40
2019-05-02T16:30:47.387Z,20.40
2019-05-02T16:33:19.541Z,20.30
2019-05-02T16:35:51.543Z,20.20
2019-05-02T16:38:22.103Z,20.10
2019-05-02T16:40:52.653Z,20.10
2019-05-02T16:43:24.817Z,20.00
2019-05-02T16:45:55.160Z,19.90
2019-05-02T16:48:24.631Z,19.80
2019-05-02T16:50:54.841Z,19.90
2019-05-02T16:53:26.346Z,19.90
2019-05-02T16:55:58.391Z,19.80
2019-05-02T16:58:28.649Z,19.90
2019-05-02T17:00:57.740Z,19.60
2019-05-02T17:03:26.769Z,19.40
2019-05-02T17:05:55.651Z,19.40
2019-05-02T17:08:35.406Z,19.40
2019-05-02T17:11:15.382Z,19.40
2019-05-02T17:13:42.507Z,19.30
2019-05-02T17:16:16.965Z,19.20
2019-05-02T17:18:43.447Z,19.10
2019-05-02T17:21:12.706Z,19.00
2019-05-02T17:23:46.368Z,18.90
2019-05-02T17:26:12.650Z,18.80
2019-05-02T17:28:43.277Z,18.70
2019-05-02T17:31:19.269Z,18.50
2019-05-02T17:33:46.311Z,18.30
2019-05-02T17:36:13.336Z,18.20
2019-05-02T17:38:42.370Z,18.10
2019-05-02T17:41:11.869Z,18.10
2019-05-02T17:43:42.366Z,18.10
2019-05-02T17:46:18.433Z,18.00
2019-05-02T17:48:47.764Z,17.70
2019-05-02T17:51:22.741Z,17.50
2019-05-02T17:53:52.385Z,17.40
2019-05-02T17:56:23.180Z,17.30
2019-05-02T17:58:54.090Z,17.20
2019-05-02T18:01:26.333Z,17.10
2019-05-02T18:03:55.029Z,17.10
2019-05-02T18:06:32.358Z,17.00
2019-05-02T18:08:55.390Z,17.10
2019-05-02T18:11:24.556Z,17.10
2019-05-02T18:13:53.499Z,17.00
2019-05-02T18:16:22.582Z,16.80
2019-05-02T18:18:52.140Z,16.50
2019-05-02T18:21:26.935Z,16.50
2019-05-02T18:23:52.144Z,16.40
2019-05-02T18:26:22.218Z,16.20
2019-05-02T18:28:52.636Z,16.20
2019-05-02T18:31:21.808Z,16.00
2019-05-02T18:33:52.051Z,15.90
2019-05-02T18:36:23.940Z,15.90
2019-05-02T18:39:00.193Z,15.80
2019-05-02T18:41:23.600Z,15.60
2019-05-02T18:43:52.604Z,15.60
2019-05-02T18:46:22.321Z,15.50
2019-05-02T18:48:51.864Z,15.50
2019-05-02T18:51:21.859Z,15.50
2019-05-02T18:53:52.906Z,15.50
2019-05-02T18:56:22.193Z,15.40
2019-05-02T18:58:53.516Z,15.40
2019-05-02T19:01:22.448Z,15.30
2019-05-02T19:03:59.015Z,15.20
2019-05-02T19:06:36.175Z,15.10
2019-05-02T19:09:12.566Z,15.00
2019-05-02T19:11:48.410Z,14.80
2019-05-02T19:14:22.294Z,14.70
2019-05-02T19:16:52.179Z,14.60
2019-05-02T19:19:27.435Z,14.50
2019-05-02T19:22:02.463Z,14.60
2019-05-02T19:24:36.609Z,14.50
2019-05-02T19:27:12.766Z,14.40
2019-05-02T19:29:48.188Z,14.40
2019-05-02T19:32:25.510Z,14.40
2019-05-02T19:34:53.135Z,14.30
2019-05-02T19:37:23.815Z,14.10
2019-05-02T19:39:56.834Z,14.00
2019-05-02T19:42:30.475Z,14.20
2019-05-02T19:45:03.717Z,14.20
2019-05-02T19:47:31.892Z,14.20
2019-05-02T19:50:02.930Z,14.20
2019-05-02T19:52:39.175Z,14.10
2019-05-02T19:55:06.350Z,14.20
2019-05-02T19:57:36.855Z,14.30
2019-05-02T20:00:12.070Z,14.30
2019-05-02T20:02:42.397Z,14.20
2019-05-02T20:05:16.489Z,14.20
2019-05-02T20:07:47.041Z,14.20
2019-05-02T20:10:18.197Z,14.20
2019-05-02T20:12:50.464Z,14.10
2019-05-02T20:15:25.444Z,14.20
2019-05-02T20:17:55.314Z,14.20
2019-05-02T20:21:04.767Z,14.20
2019-05-02T20:23:35.686Z,14.40
2019-05-02T20:26:09.389Z,14.20
2019-05-02T20:28:36.165Z,14.20
2019-05-02T20:31:06.563Z,14.20
2019-05-02T20:33:35.597Z,14.10
2019-05-02T20:36:05.600Z,14.10
2019-05-02T20:38:37.013Z,14.20
2019-05-02T20:41:08.567Z,14.10
2019-05-02T20:43:38.851Z,14.00
2019-05-02T20:46:07.844Z,14.10
2019-05-02T20:48:36.784Z,14.00
2019-05-02T20:51:05.876Z,14.00
2019-05-02T20:53:42.045Z,14.00
2019-05-02T20:56:12.409Z,14.00
2019-05-02T20:58:42.236Z,13.70
2019-05-02T21:01:12.428Z,13.40
2019-05-02T21:03:43.475Z,13.20
2019-05-02T21:06:20.503Z,13.00
2019-05-02T21:08:52.548Z,12.90
2019-05-02T21:11:23.946Z,12.70
2019-05-02T21:13:53.388Z,12.50
2019-05-02T21:16:22.277Z,12.40
2019-05-02T21:18:53.028Z,12.70
2019-05-02T21:21:22.883Z,12.70
2019-05-02T21:23:58.722Z,12.50
2019-05-02T21:26:27.775Z,12.50
2019-05-02T21:29:00.196Z,12.60
2019-05-02T21:31:31.922Z,12.30
2019-05-02T21:34:02.551Z,12.40
2019-05-02T21:36:31.996Z,12.30
2019-05-02T21:39:02.769Z,12.30
2019-05-02T21:41:33.024Z,12.20
2019-05-02T21:44:02.545Z,12.10
2019-05-02T21:46:31.836Z,12.20
2019-05-02T21:49:00.823Z,12.10
2019-05-02T21:51:33.860Z,12.00
2019-05-02T21:54:16.638Z,11.90
2019-05-02T21:56:47.151Z,11.60
2019-05-02T21:59:16.035Z,11.60
2019-05-02T22:01:49.120Z,11.60
2019-05-02T22:04:18.119Z,11.40
2019-05-02T22:06:47.268Z,11.10
2019-05-02T22:09:16.155Z,11.10
2019-05-02T22:11:45.085Z,11.10
2019-05-02T22:14:13.956Z,11.10
2019-05-02T22:16:44.513Z,11.20
2019-05-02T22:19:13.413Z,11.10
2019-05-02T22:21:43.064Z,11.00
2019-05-02T22:24:14.278Z,10.90
2019-05-02T22:26:43.562Z,10.80
2019-05-02T22:29:12.628Z,10.80
2019-05-02T22:31:43.006Z,10.70
2019-05-02T22:34:12.850Z,10.70
2019-05-02T22:36:43.066Z,10.90
2019-05-02T22:39:31.645Z,10.80
2019-05-02T22:42:02.011Z,10.90
2019-05-02T22:47:24.129Z,11.00
2019-05-02T22:49:53.014Z,10.90
2019-05-02T22:52:21.997Z,10.90
2019-05-02T22:54:52.296Z,10.90
2019-05-02T22:57:22.593Z,10.70
2019-05-02T22:59:51.745Z,10.70
2019-05-02T23:02:21.993Z,10.60
2019-05-02T23:04:52.628Z,10.70
2019-05-02T23:07:22.286Z,10.70
2019-05-02T23:09:52.644Z,10.90
2019-05-02T23:12:22.546Z,10.80
2019-05-02T23:14:52.468Z,10.70
2019-05-02T23:17:23.032Z,10.80
2019-05-02T23:19:52.771Z,10.70
2019-05-02T23:22:21.963Z,10.60
2019-05-02T23:25:04.245Z,10.60
2019-05-02T23:27:34.690Z,10.60
2019-05-02T23:30:04.535Z,10.60
2019-05-02T23:32:33.421Z,10.60
2019-05-02T23:35:02.350Z,10.60
2019-05-02T23:37:32.620Z,10.70
2019-05-02T23:40:02.110Z,10.80
2019-05-02T23:42:31.077Z,10.70
2019-05-02T23:45:00.006Z,10.70
2019-05-02T23:47:28.891Z,10.70
2019-05-02T23:49:57.842Z,10.60
2019-05-02T23:52:26.732Z,10.60
2019-05-02T23:54:55.671Z,10.40
2019-05-02T23:57:24.556Z,10.40
2019-05-02T23:59:53.499Z,10.30
